Time;durP1;ratioP1;P1;durP2;ratioP2;P2;SDS_P1;SDS_P2;PMS_P1;PMS_P2;Temp;Humidity;BMP_temperature;BMP_pressure;BME280_temperature;BME280_humidity;BME280_pressure;Samples;Min_cycle;Max_cycle;Signal;HPM_P1;HPM_P2
2021/06/03 00:01:11;;;;;;;1.62;0.60;;;;;;;12.65;64.77;99870.00;1836405;76;21054;-55
2021/06/03 00:03:38;;;;;;;5.40;0.60;;;;;;;12.63;65.45;99870.55;1834620;76;21110;-56
2021/06/03 00:06:06;;;;;;;8.23;0.85;;;;;;;12.60;64.50;99869.36;1833335;76;21462;-52
2021/06/03 00:08:33;;;;;;;2.08;0.50;;;;;;;12.61;63.89;99868.88;1836688;76;20871;-53
2021/06/03 00:11:04;;;;;;;2.67;0.60;;;;;;;12.61;63.21;99869.75;1838302;76;21444;-56
2021/06/03 00:13:34;;;;;;;0.85;0.60;;;;;;;12.63;62.75;99873.25;1835735;76;21289;-53
2021/06/03 00:16:04;;;;;;;2.65;0.93;;;;;;;12.64;63.11;99869.60;1835959;76;21038;-53
2021/06/03 00:18:32;;;;;;;2.55;0.60;;;;;;;12.61;62.01;99873.81;1838533;76;21069;-56
2021/06/03 00:20:58;;;;;;;6.17;0.53;;;;;;;12.59;61.97;99874.36;1833168;76;21029;-55
2021/06/03 00:23:24;;;;;;;4.33;0.60;;;;;;;12.54;61.92;99872.88;1833414;76;22238;-53
2021/06/03 00:25:51;;;;;;;4.55;0.60;;;;;;;12.51;61.38;99873.44;1832335;75;21607;-55
2021/06/03 00:28:18;;;;;;;2.47;0.60;;;;;;;12.50;61.45;99878.94;1833245;75;21068;-57
2021/06/03 00:30:46;;;;;;;0.70;0.50;;;;;;;12.50;61.14;99876.24;1835557;77;21763;-54
2021/06/03 00:33:14;;;;;;;3.52;0.70;;;;;;;12.50;61.05;99879.78;1839529;77;21065;-53
2021/06/03 00:35:43;;;;;;;1.52;0.70;;;;;;;12.49;61.85;99876.72;1837242;77;21063;-56
2021/06/03 00:38:10;;;;;;;2.75;0.62;;;;;;;12.47;61.59;99877.75;1835261;77;22233;-53
2021/06/03 00:40:37;;;;;;;2.98;0.60;;;;;;;12.46;62.18;99878.70;1837011;77;21539;-55
2021/06/03 00:43:04;;;;;;;4.37;0.60;;;;;;;12.41;62.35;99872.69;1834325;77;21711;-55
2021/06/03 00:45:36;;;;;;;3.72;0.80;;;;;;;12.38;62.90;99880.46;1837014;77;20973;-53
2021/06/03 00:48:05;;;;;;;1.20;0.40;;;;;;;12.34;62.03;99879.34;1842957;77;21059;-55
2021/06/03 00:50:42;;;;;;;1.42;0.53;;;;;;;12.33;61.75;99877.15;1838247;77;21425;-54
2021/06/03 00:53:11;;;;;;;2.02;0.60;;;;;;;12.35;62.05;99875.69;1836255;77;21442;-52
2021/06/03 00:55:38;;;;;;;3.37;0.50;;;;;;;12.37;61.44;99881.89;1838637;77;20929;-52
2021/06/03 00:58:06;;;;;;;1.12;0.60;;;;;;;12.37;61.40;99878.72;1810921;77;22383;-53
2021/06/03 01:00:35;;;;;;;1.37;0.70;;;;;;;12.40;61.47;99881.73;1836644;75;21160;-52
2021/06/03 01:03:05;;;;;;;0.90;0.55;;;;;;;12.41;60.85;99883.48;1837778;77;20937;-53
2021/06/03 01:05:42;;;;;;;2.75;0.70;;;;;;;12.41;61.48;99883.01;1840520;77;20969;-53
2021/06/03 01:08:15;;;;;;;4.08;0.60;;;;;;;12.38;61.08;99880.46;1840411;77;20922;-57
2021/06/03 01:11:07;;;;;;;5.00;0.70;;;;;;;12.37;61.61;99877.36;1840004;77;20969;-56
2021/06/03 01:14:13;;;;;;;17.82;0.80;;;;;;;12.36;61.26;99885.53;1841121;77;20957;-56
2021/06/03 01:16:41;;;;;;;6.05;0.55;;;;;;;12.33;61.90;99887.95;1836672;77;21442;-56
2021/06/03 01:19:13;;;;;;;6.37;0.62;;;;;;;12.29;61.12;99883.65;1838276;77;20878;-52
2021/06/03 01:21:56;;;;;;;6.78;0.88;;;;;;;12.28;61.40;99887.30;1819123;77;21472;-53
2021/06/03 01:24:30;;;;;;;5.15;0.60;;;;;;;12.28;61.38;99882.38;1841657;75;21352;-55
2021/06/03 01:27:12;;;;;;;4.10;0.60;;;;;;;12.26;61.14;99887.84;1837501;77;21809;-53
2021/06/03 01:30:05;;;;;;;5.95;0.62;;;;;;;12.26;61.50;99881.10;1836245;76;21610;-56
2021/06/03 01:32:34;;;;;;;4.28;0.82;;;;;;;12.25;61.78;99881.21;1838077;76;20931;-56
2021/06/03 01:35:00;;;;;;;3.52;0.85;;;;;;;12.23;60.99;99885.33;1836432;76;20941;-53
2021/06/03 01:37:26;;;;;;;1.70;0.40;;;;;;;12.22;60.70;99876.84;1840961;75;20859;-58
2021/06/03 01:39:55;;;;;;;3.40;0.70;;;;;;;12.23;60.31;99885.33;1837830;75;21968;-55
2021/06/03 01:42:21;;;;;;;5.85;0.60;;;;;;;12.25;60.18;99878.52;1836380;76;21464;-57
2021/06/03 01:44:49;;;;;;;4.22;0.60;;;;;;;12.26;60.45;99877.53;1838986;76;20863;-56
2021/06/03 01:47:16;;;;;;;3.35;0.60;;;;;;;12.27;60.41;99875.23;1838871;76;20941;-55
2021/06/03 01:49:45;;;;;;;3.60;0.60;;;;;;;12.27;60.36;99879.27;1810006;76;20850;-59
2021/06/03 01:52:11;;;;;;;8.18;0.70;;;;;;;12.27;60.76;99887.37;1837891;76;21744;-59
2021/06/03 01:54:38;;;;;;;2.20;0.60;;;;;;;12.23;60.47;99883.11;1835237;76;21010;-59
2021/06/03 01:57:08;;;;;;;6.70;0.70;;;;;;;12.21;60.28;99880.48;1837029;76;21478;-58
2021/06/03 01:59:36;;;;;;;4.72;1.60;;;;;;;12.20;60.12;99888.66;1834024;76;21337;-58
2021/06/03 02:02:03;;;;;;;1.07;0.55;;;;;;;12.20;60.15;99883.26;1825973;76;21000;-58
2021/06/03 02:04:30;;;;;;;5.55;0.70;;;;;;;12.20;60.18;99884.13;1836896;76;21419;-57
2021/06/03 02:06:58;;;;;;;4.37;0.60;;;;;;;12.21;59.91;99890.41;1829809;77;21313;-55
2021/06/03 02:09:26;;;;;;;1.55;0.60;;;;;;;12.20;59.99;99893.58;1834612;76;20973;-58
2021/06/03 02:11:56;;;;;;;1.87;0.53;;;;;;;12.21;60.21;99889.05;1837722;76;21029;-55
2021/06/03 02:14:27;;;;;;;1.47;0.60;;;;;;;12.22;60.01;99890.80;1830251;76;22095;-57
2021/06/03 02:16:58;;;;;;;9.55;0.60;;;;;;;12.23;60.24;99893.91;1833247;76;21148;-56
2021/06/03 02:19:42;;;;;;;2.02;0.57;;;;;;;12.23;60.15;99892.55;1836638;75;21013;-56
2021/06/03 02:22:10;;;;;;;4.30;0.60;;;;;;;12.25;59.92;99892.84;1835746;76;21470;-58
2021/06/03 02:24:39;;;;;;;1.32;0.50;;;;;;;12.27;59.79;99900.87;1782217;76;21032;-59
2021/06/03 02:27:06;;;;;;;4.08;0.70;;;;;;;12.28;60.04;99897.22;1835858;76;21304;-56
2021/06/03 02:29:33;;;;;;;3.87;0.70;;;;;;;12.29;59.74;99900.31;1833368;77;21087;-57
2021/06/03 02:32:01;;;;;;;7.53;0.70;;;;;;;12.32;59.69;99894.77;1825863;76;21049;-58
2021/06/03 02:34:29;;;;;;;6.20;0.88;;;;;;;12.36;59.19;99903.95;1835547;77;21048;-59
2021/06/03 02:36:56;;;;;;;6.78;0.82;;;;;;;12.40;59.31;99897.94;1835508;77;21067;-57
2021/06/03 02:39:23;;;;;;;7.70;0.78;;;;;;;12.44;59.01;99903.55;1835978;77;21047;-56
2021/06/03 02:41:51;;;;;;;3.52;1.00;;;;;;;12.47;58.72;99904.74;1815803;77;21134;-59
2021/06/03 02:44:17;;;;;;;6.37;1.42;;;;;;;12.51;58.74;99902.26;1837262;77;20981;-56
2021/06/03 02:46:44;;;;;;;4.15;0.80;;;;;;;12.55;58.91;99907.91;1842062;77;20898;-55
2021/06/03 02:49:11;;;;;;;3.22;0.80;;;;;;;12.58;58.83;99909.58;1841866;77;20898;-57
2021/06/03 02:51:41;;;;;;;4.70;0.78;;;;;;;12.60;58.38;99913.04;1814171;77;21036;-57
2021/06/03 02:54:09;;;;;;;2.65;0.80;;;;;;;12.62;58.50;99913.36;1841152;77;22208;-59
2021/06/03 02:56:37;;;;;;;3.55;0.70;;;;;;;12.65;58.29;99909.63;1836988;77;21085;-60
2021/06/03 02:59:04;;;;;;;3.65;0.60;;;;;;;12.67;57.88;99902.33;1835631;77;21092;-58
2021/06/03 03:01:31;;;;;;;3.60;0.70;;;;;;;12.69;57.70;99908.02;1835607;77;20953;-58
2021/06/03 03:03:58;;;;;;;2.15;0.80;;;;;;;12.71;57.10;99902.06;1833241;77;21052;-55
2021/06/03 03:06:26;;;;;;;2.65;0.72;;;;;;;12.76;57.44;99913.98;1834052;77;21130;-56
2021/06/03 03:08:52;;;;;;;1.77;0.78;;;;;;;12.78;57.07;99906.17;1837248;77;21028;-56
2021/06/03 03:11:19;;;;;;;1.87;0.90;;;;;;;12.81;56.82;99901.96;1836761;77;21029;-57
2021/06/03 03:13:47;;;;;;;2.92;1.00;;;;;;;12.83;56.71;99901.41;1835706;77;21040;-58
2021/06/03 03:16:16;;;;;;;4.60;0.90;;;;;;;12.87;56.74;99909.72;1836461;76;21072;-55
2021/06/03 03:18:43;;;;;;;4.00;0.90;;;;;;;12.89;56.63;99907.81;1836877;77;21668;-57
2021/06/03 03:21:10;;;;;;;5.85;0.80;;;;;;;12.94;56.38;99906.67;1836360;77;21038;-58
2021/06/03 03:23:38;;;;;;;2.70;0.85;;;;;;;12.96;56.18;99908.34;1836046;77;21155;-58
2021/06/03 03:28:29;;;;;;;2.40;0.73;;;;;;;13.05;55.83;99897.02;1794181;78;23817;-58
2021/06/03 03:30:56;;;;;;;3.52;0.90;;;;;;;13.04;56.06;99907.43;1770665;78;21545;-57
2021/06/03 03:33:25;;;;;;;4.00;0.80;;;;;;;13.06;55.88;99901.47;1769515;79;21213;-56
2021/06/03 03:35:51;;;;;;;3.92;0.72;;;;;;;13.12;56.11;99915.10;1770132;79;21089;-56
2021/06/03 03:38:21;;;;;;;6.33;1.10;;;;;;;13.14;55.85;99917.28;1769205;78;21718;-59
2021/06/03 03:40:51;;;;;;;5.12;1.07;;;;;;;13.16;55.83;99913.55;1763981;79;21018;-57
2021/06/03 03:43:18;;;;;;;7.95;1.20;;;;;;;13.20;55.83;99916.45;1750758;79;21689;-57
2021/06/03 03:45:44;;;;;;;8.53;0.90;;;;;;;13.23;55.77;99917.64;1752034;80;21448;-59
2021/06/03 03:48:11;;;;;;;4.22;0.72;;;;;;;13.25;55.92;99906.27;1731605;80;21476;-58
2021/06/03 03:50:38;;;;;;;8.30;0.80;;;;;;;13.29;55.96;99908.78;1752798;80;21424;-58
2021/06/03 03:53:05;;;;;;;4.65;0.85;;;;;;;13.30;55.67;99905.12;1752747;80;21598;-57
2021/06/03 03:55:32;;;;;;;3.60;0.65;;;;;;;13.33;55.89;99910.37;1756510;80;20906;-56
2021/06/03 03:57:59;;;;;;;4.65;0.82;;;;;;;13.33;55.59;99912.59;1749628;80;21782;-58
2021/06/03 04:00:28;;;;;;;1.87;0.80;;;;;;;13.36;55.74;99913.75;1753650;80;20911;-56
2021/06/03 04:02:59;;;;;;;3.95;1.47;;;;;;;13.36;55.74;99911.52;1754004;80;20926;-58
2021/06/03 04:05:27;;;;;;;4.62;0.70;;;;;;;13.36;55.84;99914.22;1754216;80;20953;-57
2021/06/03 04:07:55;;;;;;;4.67;0.68;;;;;;;13.36;55.87;99913.75;1755005;80;20974;-57
2021/06/03 04:10:22;;;;;;;2.95;0.60;;;;;;;13.37;55.46;99911.92;1758427;80;21049;-57
2021/06/03 04:12:51;;;;;;;4.70;0.68;;;;;;;13.37;55.58;99918.20;1718604;81;21418;-57
2021/06/03 04:15:18;;;;;;;1.42;0.65;;;;;;;13.38;55.66;99925.36;1693640;82;21465;-57
2021/06/03 04:17:47;;;;;;;3.35;0.65;;;;;;;13.39;55.66;99920.82;1696446;83;20951;-54
2021/06/03 04:20:19;;;;;;;2.95;0.70;;;;;;;13.41;55.69;99917.56;1694073;83;20934;-56
2021/06/03 04:22:47;;;;;;;1.70;0.68;;;;;;;13.44;55.61;99916.05;1691428;83;21825;-58
2021/06/03 04:25:14;;;;;;;3.30;0.60;;;;;;;13.45;55.57;99928.09;1691410;83;20939;-58
2021/06/03 04:27:40;;;;;;;6.72;1.62;;;;;;;13.47;55.58;99923.95;1686479;83;21023;-58
2021/06/03 04:30:11;;;;;;;3.98;0.60;;;;;;;13.49;55.20;99924.75;1678202;83;20923;-56
2021/06/03 04:32:38;;;;;;;3.47;1.10;;;;;;;13.50;55.16;99934.61;1674116;83;20991;-57
2021/06/03 04:35:07;;;;;;;2.98;0.70;;;;;;;13.50;55.21;99931.42;1681893;83;21144;-59
2021/06/03 04:37:33;;;;;;;3.25;0.60;;;;;;;13.52;55.40;99933.57;1681434;83;20939;-57
2021/06/03 04:40:01;;;;;;;2.92;0.60;;;;;;;13.55;55.12;99936.56;1677593;83;20915;-57
2021/06/03 04:42:27;;;;;;;5.90;0.80;;;;;;;13.59;55.27;99934.08;1676378;83;21102;-59
2021/06/03 04:44:54;;;;;;;3.72;0.60;;;;;;;13.63;55.21;99935.16;1676228;83;21130;-58
2021/06/03 04:47:20;;;;;;;2.35;0.60;;;;;;;13.70;55.36;99928.03;1736030;80;21457;-59
2021/06/03 04:49:46;;;;;;;0.93;0.47;;;;;;;13.78;54.96;99927.13;1740083;80;21671;-59
2021/06/03 04:52:28;;;;;;;3.80;0.70;;;;;;;13.85;55.30;99929.38;1734877;80;21954;-58
2021/06/03 04:55:02;;;;;;;2.35;0.60;;;;;;;13.95;55.07;99932.42;1739098;80;21429;-57
2021/06/03 04:57:29;;;;;;;3.70;0.60;;;;;;;14.05;54.49;99936.30;1741985;80;20993;-55
2021/06/03 04:59:55;;;;;;;3.83;0.80;;;;;;;14.18;54.71;99933.75;1734774;80;22553;-54
2021/06/03 05:02:21;;;;;;;1.50;0.60;;;;;;;14.27;54.00;99939.48;1738026;80;21400;-58
2021/06/03 05:04:49;;;;;;;2.65;0.50;;;;;;;14.37;54.09;99933.88;1733128;80;21073;-60
2021/06/03 05:07:16;;;;;;;3.08;0.53;;;;;;;14.51;53.77;99930.86;1738183;80;20942;-55
2021/06/03 05:09:43;;;;;;;3.17;0.68;;;;;;;14.62;53.88;99922.47;1734785;80;20983;-55
2021/06/03 05:12:09;;;;;;;2.45;0.50;;;;;;;14.74;53.46;99926.23;1738837;80;21132;-58
2021/06/03 05:14:37;;;;;;;1.72;1.17;;;;;;;14.86;51.92;99922.77;1736019;80;21634;-58
2021/06/03 05:17:04;;;;;;;4.42;0.42;;;;;;;14.98;50.53;99927.88;1733749;80;21028;-59
2021/06/03 05:19:36;;;;;;;3.62;0.50;;;;;;;15.09;50.30;99921.30;1734966;80;21026;-58
2021/06/03 05:22:04;;;;;;;3.92;0.60;;;;;;;15.18;50.76;99927.97;1738556;80;21334;-55
2021/06/03 05:24:33;;;;;;;2.67;0.62;;;;;;;15.27;50.87;99924.66;1743844;80;21124;-59
2021/06/03 05:27:00;;;;;;;8.35;0.75;;;;;;;15.37;50.27;99924.45;1736135;80;21101;-56
2021/06/03 05:29:27;;;;;;;6.58;0.70;;;;;;;15.46;50.46;99930.64;1740231;80;21096;-55
2021/06/03 05:31:55;;;;;;;4.62;0.68;;;;;;;15.57;50.78;99932.17;1734553;80;21018;-56
2021/06/03 05:34:22;;;;;;;3.00;1.12;;;;;;;15.69;50.39;99931.86;1736155;80;21132;-57
2021/06/03 05:36:48;;;;;;;1.65;0.60;;;;;;;15.80;50.28;99930.67;1712176;80;21805;-58
2021/06/03 05:39:16;;;;;;;1.47;0.60;;;;;;;15.92;49.82;99939.81;1729829;80;21047;-58
2021/06/03 05:41:42;;;;;;;3.90;0.60;;;;;;;15.98;47.70;99936.71;1727477;80;21301;-58
2021/06/03 05:44:11;;;;;;;1.47;0.60;;;;;;;16.04;47.94;99934.45;1734555;80;20987;-58
2021/06/03 05:46:38;;;;;;;2.67;0.60;;;;;;;16.11;48.43;99932.17;1728293;80;21680;-59
2021/06/03 05:49:07;;;;;;;1.87;0.50;;;;;;;16.17;48.15;99939.41;1738896;80;21097;-58
2021/06/03 05:51:35;;;;;;;0.90;0.45;;;;;;;16.25;47.92;99943.83;1742948;80;20947;-58
2021/06/03 05:54:03;;;;;;;2.95;0.40;;;;;;;16.33;47.86;99942.46;1741113;80;22058;-57
2021/06/03 05:56:30;;;;;;;2.90;0.50;;;;;;;16.42;47.72;99941.80;1737584;80;20999;-55
2021/06/03 05:58:57;;;;;;;1.77;0.75;;;;;;;16.55;47.03;99942.22;1741852;80;21061;-56
2021/06/03 06:01:24;;;;;;;1.20;0.55;;;;;;;16.55;47.03;99942.22;1742074;80;21947;-59
2021/06/03 06:06:25;;;;;;;3.30;0.82;;;;;;;16.67;46.66;99945.09;1703026;82;21106;-56
2021/06/03 06:08:55;;;;;;;6.15;1.00;;;;;;;16.72;46.75;99945.63;1680302;83;21058;-59
2021/06/03 06:11:23;;;;;;;5.10;0.50;;;;;;;16.79;46.14;99946.93;1676386;83;21355;-57
2021/06/03 06:13:49;;;;;;;0.82;0.50;;;;;;;16.84;46.06;99949.69;1678343;83;20963;-56
2021/06/03 06:16:17;;;;;;;1.67;0.53;;;;;;;16.89;45.72;99946.18;1677331;83;21440;-57
2021/06/03 06:18:44;;;;;;;1.87;0.50;;;;;;;16.95;46.15;99942.14;1736733;80;21445;-60
2021/06/03 06:21:17;;;;;;;2.08;0.50;;;;;;;17.00;45.03;99939.49;1738011;80;21520;-56
2021/06/03 06:23:45;;;;;;;5.47;0.50;;;;;;;17.11;45.25;99941.91;1736230;80;21374;-58
2021/06/03 06:26:11;;;;;;;0.70;0.50;;;;;;;17.11;45.25;99941.91;1736207;80;21697;-57
2021/06/03 06:28:38;;;;;;;5.75;0.50;;;;;;;17.14;45.36;99939.84;1738286;80;21598;-58
2021/06/03 06:31:06;;;;;;;2.08;0.60;;;;;;;17.22;44.75;99940.16;1737880;80;21125;-57
2021/06/03 06:33:33;;;;;;;5.97;0.60;;;;;;;17.25;44.55;99937.23;1737148;80;20908;-58
2021/06/03 06:36:01;;;;;;;2.92;0.70;;;;;;;17.29;45.64;99936.50;1738503;80;21481;-58
2021/06/03 06:38:27;;;;;;;2.30;0.60;;;;;;;17.32;44.93;99954.84;1747429;80;21107;-58
2021/06/03 06:40:54;;;;;;;0.88;0.50;;;;;;;17.37;45.00;99943.12;1742088;80;21042;-58
2021/06/03 06:43:20;;;;;;;4.33;0.40;;;;;;;17.44;44.17;99939.45;1733351;80;21069;-56
2021/06/03 06:45:47;;;;;;;5.37;0.40;;;;;;;17.50;44.03;99944.95;1738731;80;21053;-59
2021/06/03 06:48:15;;;;;;;0.85;0.40;;;;;;;17.53;43.72;99941.49;1731935;80;20885;-57
2021/06/03 06:50:43;;;;;;;1.20;0.40;;;;;;;17.56;43.43;99943.13;1744538;80;21358;-57
2021/06/03 06:53:09;;;;;;;6.40;0.50;;;;;;;17.59;43.83;99942.42;1741083;80;20981;-58
2021/06/03 06:55:38;;;;;;;1.20;0.40;;;;;;;17.65;44.76;99947.44;1742602;80;20951;-55
2021/06/03 06:58:04;;;;;;;1.87;0.40;;;;;;;17.72;43.26;99953.29;1741309;80;20909;-59
2021/06/03 07:00:35;;;;;;;0.95;0.30;;;;;;;17.73;43.41;99946.38;1735492;80;20931;-59
2021/06/03 07:03:02;;;;;;;8.45;0.60;;;;;;;17.78;41.15;99938.72;1742154;80;21456;-60
2021/06/03 07:05:29;;;;;;;1.27;0.40;;;;;;;17.85;42.26;99941.00;1739479;80;20918;-57
2021/06/03 07:07:57;;;;;;;3.33;0.40;;;;;;;17.91;42.74;99939.17;1733535;80;20888;-59
2021/06/03 07:10:23;;;;;;;1.60;0.33;;;;;;;17.98;42.02;99941.31;1735919;80;20924;-58
2021/06/03 07:12:52;;;;;;;1.77;0.30;;;;;;;18.05;41.19;99940.34;1736229;80;20884;-57
2021/06/03 07:15:18;;;;;;;5.92;0.42;;;;;;;18.07;40.97;99939.74;1737899;80;21552;-56
2021/06/03 07:17:46;;;;;;;1.67;0.30;;;;;;;18.08;40.34;99921.93;1739568;80;21021;-57
2021/06/03 07:20:16;;;;;;;7.60;0.40;;;;;;;18.10;39.31;99929.50;1737360;80;21335;-59
2021/06/03 07:22:45;;;;;;;0.95;0.30;;;;;;;18.12;40.04;99941.13;1672033;84;21410;-58
2021/06/03 07:25:12;;;;;;;4.60;0.30;;;;;;;18.16;39.50;99932.23;1740126;80;21322;-59
2021/06/03 07:27:39;;;;;;;3.02;0.50;;;;;;;18.17;38.39;99942.15;1734942;80;21150;-59
2021/06/03 07:30:09;;;;;;;3.67;0.45;;;;;;;18.21;38.51;99934.09;1734174;80;20900;-58
2021/06/03 07:32:35;;;;;;;2.20;0.40;;;;;;;18.23;40.11;99925.33;1735637;80;20907;-60
2021/06/03 07:35:09;;;;;;;1.55;0.40;;;;;;;18.30;39.92;99934.76;1701064;83;21020;-59
2021/06/03 07:37:35;;;;;;;1.27;0.40;;;;;;;18.40;39.84;99931.70;1736460;80;20977;-59
2021/06/03 07:40:05;;;;;;;1.17;0.30;;;;;;;18.47;38.67;99922.55;1705211;82;21160;-57
2021/06/03 07:42:31;;;;;;;2.12;0.30;;;;;;;18.53;40.16;99929.77;1740234;80;21359;-57
2021/06/03 07:44:57;;;;;;;0.70;0.40;;;;;;;18.60;38.41;99941.09;1738795;80;21065;-58
2021/06/03 07:47:24;;;;;;;1.40;0.40;;;;;;;18.64;38.97;99915.80;1700275;82;21442;-58
2021/06/03 07:49:50;;;;;;;0.82;0.30;;;;;;;18.68;38.64;99930.95;1733138;80;21107;-59
2021/06/03 07:52:17;;;;;;;0.80;0.30;;;;;;;18.73;39.19;99923.26;1733395;80;21631;-58
2021/06/03 07:54:43;;;;;;;1.12;0.40;;;;;;;18.76;37.93;99932.08;1735437;80;21101;-59
2021/06/03 07:57:09;;;;;;;0.60;0.40;;;;;;;18.81;38.66;99922.16;1735864;80;21090;-59
2021/06/03 07:59:36;;;;;;;5.22;0.40;;;;;;;18.86;39.87;99929.50;1732977;80;21097;-57
2021/06/03 08:02:03;;;;;;;0.88;0.30;;;;;;;18.96;37.63;99925.05;1733117;80;21104;-59
2021/06/03 08:04:29;;;;;;;0.47;0.30;;;;;;;19.02;37.31;99927.27;1737548;80;21156;-58
2021/06/03 08:06:57;;;;;;;5.08;0.30;;;;;;;19.04;38.09;99916.24;1737606;80;21838;-59
2021/06/03 08:09:23;;;;;;;3.95;0.40;;;;;;;19.02;36.67;99932.73;1734312;80;21099;-59
2021/06/03 08:11:53;;;;;;;2.35;0.40;;;;;;;18.96;36.70;99936.45;1735698;80;21629;-58
2021/06/03 08:14:20;;;;;;;1.02;0.20;;;;;;;18.85;36.03;99931.35;1738233;80;21036;-58
2021/06/03 08:16:46;;;;;;;6.70;0.47;;;;;;;18.79;35.59;99931.84;1739567;80;21443;-59
2021/06/03 08:19:16;;;;;;;2.55;0.40;;;;;;;18.81;36.13;99927.11;1733431;80;21101;-57
2021/06/03 08:21:42;;;;;;;2.75;0.30;;;;;;;18.92;36.47;99922.18;1736026;80;21041;-59
2021/06/03 08:24:09;;;;;;;4.53;0.37;;;;;;;19.07;37.82;99929.62;1737124;80;22374;-58
2021/06/03 08:26:35;;;;;;;0.90;0.35;;;;;;;19.19;36.84;99921.33;1737342;80;22008;-59
2021/06/03 08:29:03;;;;;;;3.35;0.30;;;;;;;19.32;36.51;99929.37;1738163;80;21316;-58
2021/06/03 08:31:30;;;;;;;3.25;0.30;;;;;;;19.43;37.30;99929.86;1733111;80;21650;-59
2021/06/03 08:34:01;;;;;;;1.77;0.30;;;;;;;19.52;36.04;99931.38;1741004;80;21592;-58
2021/06/03 08:36:25;;;;;;;0.55;0.30;;;;;;;19.56;36.43;99924.66;1736860;80;21050;-59
2021/06/03 08:38:51;;;;;;;0.90;0.37;;;;;;;19.56;35.82;99934.20;1713167;80;21070;-59
2021/06/03 08:41:18;;;;;;;1.75;0.37;;;;;;;19.47;35.87;99931.36;1735563;80;21800;-57
2021/06/03 08:43:44;;;;;;;0.70;0.40;;;;;;;19.36;35.84;99934.96;1736893;80;21444;-59
2021/06/03 08:46:10;;;;;;;4.03;0.50;;;;;;;19.22;34.51;99930.61;1736461;80;21115;-60
2021/06/03 08:48:37;;;;;;;2.83;0.60;;;;;;;19.11;35.04;99936.09;1737680;80;21086;-58
2021/06/03 08:51:05;;;;;;;1.70;0.50;;;;;;;19.10;35.33;99936.20;1736076;80;21053;-59
2021/06/03 08:53:32;;;;;;;3.75;0.30;;;;;;;19.14;36.33;99934.98;1739231;80;21591;-59
2021/06/03 08:56:17;;;;;;;1.70;0.30;;;;;;;19.20;36.63;99928.52;1735574;80;21807;-59
2021/06/03 08:58:48;;;;;;;3.60;0.40;;;;;;;19.31;36.65;99919.44;1737724;80;21110;-56
2021/06/03 09:01:15;;;;;;;0.50;0.30;;;;;;;19.41;36.72;99934.57;1742956;80;20923;-59
2021/06/03 09:03:42;;;;;;;0.72;0.30;;;;;;;19.48;36.10;99935.34;1740971;80;21058;-59
2021/06/03 09:06:10;;;;;;;4.37;0.30;;;;;;;19.47;35.43;99927.27;1735320;80;22339;-58
2021/06/03 09:08:38;;;;;;;3.85;0.40;;;;;;;19.37;35.35;99935.34;1740853;80;21097;-59
2021/06/03 09:11:14;;;;;;;0.93;0.40;;;;;;;19.32;36.01;99949.84;1738118;80;21117;-58
2021/06/03 09:13:45;;;;;;;4.53;0.30;;;;;;;19.29;35.71;99939.19;1736476;80;21512;-56
2021/06/03 09:16:15;;;;;;;2.15;0.37;;;;;;;19.35;35.91;99941.91;1736904;80;21054;-58
2021/06/03 09:18:47;;;;;;;5.87;0.55;;;;;;;19.42;36.21;99942.64;1737361;80;21018;-58
2021/06/03 09:21:35;;;;;;;1.72;0.72;;;;;;;19.52;35.77;99934.60;1735242;80;21485;-59
2021/06/03 09:24:10;;;;;;;2.45;0.50;;;;;;;19.57;36.00;99933.71;1739441;80;21077;-58
2021/06/03 09:26:49;;;;;;;0.70;0.60;;;;;;;19.59;36.02;99938.56;1742767;80;21041;-58
2021/06/03 09:29:23;;;;;;;2.55;0.40;;;;;;;19.59;35.23;99940.80;1745421;80;20987;-57
2021/06/03 09:31:50;;;;;;;0.93;0.57;;;;;;;19.55;34.94;99948.88;1745412;80;21193;-57
2021/06/03 09:34:19;;;;;;;0.60;0.30;;;;;;;19.54;36.18;99940.81;1747310;80;20969;-57
2021/06/03 09:36:54;;;;;;;3.70;0.40;;;;;;;19.52;36.37;99943.66;1746546;80;21569;-58
2021/06/03 09:39:28;;;;;;;3.42;0.30;;;;;;;19.52;34.95;99935.47;1744041;80;21042;-60
2021/06/03 09:42:00;;;;;;;1.00;0.30;;;;;;;19.50;34.79;99942.05;1747253;80;25008;-58
2021/06/03 09:44:38;;;;;;;2.22;0.60;;;;;;;19.51;35.18;99934.23;1746610;80;21297;-57
2021/06/03 09:47:14;;;;;;;3.27;0.78;;;;;;;19.56;36.65;99941.03;1711044;82;21354;-58
2021/06/03 09:49:44;;;;;;;1.98;0.40;;;;;;;19.67;35.88;99935.19;1740258;80;20926;-58
2021/06/03 09:52:18;;;;;;;1.75;0.30;;;;;;;19.70;35.18;99935.81;1747219;80;21350;-58
2021/06/03 09:54:55;;;;;;;1.32;0.30;;;;;;;19.71;34.17;99929.37;1751441;80;20938;-57
2021/06/03 09:57:32;;;;;;;1.02;0.30;;;;;;;19.72;34.00;99938.43;1751792;80;21048;-60
2021/06/03 10:00:07;;;;;;;3.25;0.37;;;;;;;19.75;34.48;99925.37;1713450;82;21460;-59
2021/06/03 10:02:38;;;;;;;1.17;0.40;;;;;;;19.85;35.08;99929.07;1746568;80;21500;-58
2021/06/03 10:05:17;;;;;;;2.58;0.50;;;;;;;19.96;34.60;99930.41;1748078;80;20933;-60
2021/06/03 10:07:56;;;;;;;2.27;0.40;;;;;;;20.03;34.38;99938.95;1750641;80;20965;-59
2021/06/03 10:10:24;;;;;;;1.35;0.40;;;;;;;20.03;33.79;99942.55;1748359;80;21453;-60
2021/06/03 10:12:50;;;;;;;3.77;0.40;;;;;;;20.03;33.56;99945.78;1741601;80;20950;-56
2021/06/03 10:15:26;;;;;;;1.35;0.30;;;;;;;20.09;34.56;99941.66;1711051;82;21508;-59
2021/06/03 10:18:00;;;;;;;3.90;0.50;;;;;;;20.11;34.21;99932.34;1706161;82;21908;-59
2021/06/03 10:20:44;;;;;;;2.25;0.30;;;;;;;20.14;35.04;99936.19;1706112;82;21260;-58
2021/06/03 10:23:20;;;;;;;0.57;0.20;;;;;;;20.12;33.80;99939.55;1706524;82;21422;-57
2021/06/03 10:25:59;;;;;;;2.33;0.30;;;;;;;20.07;33.98;99950.01;1703598;82;20879;-58
2021/06/03 10:28:28;;;;;;;3.90;0.25;;;;;;;20.02;33.55;99936.72;1669208;83;20927;-57
2021/06/03 10:30:57;;;;;;;0.90;0.30;;;;;;;20.01;34.72;99949.14;1682352;83;21335;-58
2021/06/03 10:33:26;;;;;;;0.70;0.30;;;;;;;20.00;33.93;99945.53;1677556;83;21354;-56
2021/06/03 10:35:58;;;;;;;0.93;0.30;;;;;;;20.00;35.16;99948.27;1670614;84;21100;-60
2021/06/03 10:38:26;;;;;;;1.17;0.40;;;;;;;20.01;34.58;99941.81;1684162;83;21116;-55
2021/06/03 10:40:59;;;;;;;1.75;0.30;;;;;;;20.02;35.19;99941.31;1720493;82;21041;-58
2021/06/03 10:43:27;;;;;;;5.28;0.30;;;;;;;20.00;34.71;99940.56;1715847;82;21610;-57
2021/06/03 10:45:53;;;;;;;0.93;0.33;;;;;;;19.97;33.64;99944.95;1654193;83;21089;-57
2021/06/03 10:48:20;;;;;;;0.62;0.30;;;;;;;19.86;34.53;99936.27;1721611;81;21788;-58
2021/06/03 10:50:52;;;;;;;3.35;0.40;;;;;;;19.80;34.83;99942.75;1721512;81;21218;-58
2021/06/03 10:53:27;;;;;;;0.40;0.30;;;;;;;19.80;35.44;99935.43;1721153;81;21522;-57
2021/06/03 10:55:55;;;;;;;0.57;0.30;;;;;;;19.86;35.98;99941.73;1685673;83;21044;-56
2021/06/03 10:58:33;;;;;;;2.08;0.40;;;;;;;19.98;35.86;99935.75;1717525;81;21069;-56
2021/06/03 11:01:05;;;;;;;1.35;0.30;;;;;;;20.06;34.73;99933.24;1718518;81;21663;-57
2021/06/03 11:03:43;;;;;;;3.87;0.40;;;;;;;20.07;35.24;99943.67;1718894;81;21058;-58
2021/06/03 11:06:11;;;;;;;5.58;0.42;;;;;;;20.09;34.88;99932.09;1683750;83;21042;-56
2021/06/03 11:08:50;;;;;;;1.47;0.33;;;;;;;20.08;35.71;99932.59;1722753;81;21081;-58
2021/06/03 11:11:22;;;;;;;3.62;0.33;;;;;;;20.09;35.19;99931.59;1718834;81;21111;-57
2021/06/03 11:13:55;;;;;;;1.65;0.30;;;;;;;20.07;35.33;99946.41;1718429;81;21092;-57
2021/06/03 11:16:39;;;;;;;4.20;0.30;;;;;;;20.05;34.05;99946.53;1728273;81;21124;-56
2021/06/03 11:19:13;;;;;;;1.90;0.30;;;;;;;20.08;34.64;99942.65;1718604;81;21230;-57
2021/06/03 11:21:47;;;;;;;2.12;0.40;;;;;;;20.17;35.92;99940.50;1682512;83;21056;-56
2021/06/03 11:24:23;;;;;;;0.50;0.30;;;;;;;20.35;36.29;99958.11;1683659;83;21125;-56
2021/06/03 11:26:54;;;;;;;0.62;0.30;;;;;;;20.43;34.86;99945.15;1683197;83;21053;-57
2021/06/03 11:29:31;;;;;;;2.80;0.40;;;;;;;20.42;34.94;99952.48;1680446;82;21462;-56
2021/06/03 11:32:08;;;;;;;7.72;0.30;;;;;;;20.39;35.18;99944.06;1698915;82;21211;-58
2021/06/03 11:34:43;;;;;;;0.65;0.30;;;;;;;20.37;34.79;99946.55;1736512;80;21128;-58
2021/06/03 11:37:16;;;;;;;0.80;0.37;;;;;;;20.29;34.68;99946.31;1735093;80;21125;-57
2021/06/03 11:39:58;;;;;;;1.52;0.30;;;;;;;20.20;34.24;99950.69;1727294;80;21022;-57
2021/06/03 11:42:39;;;;;;;3.12;0.37;;;;;;;20.13;35.24;99965.88;1726523;80;21055;-57
2021/06/03 11:45:31;;;;;;;0.80;0.40;;;;;;;20.08;35.36;99945.38;1740821;80;21078;-56
2021/06/03 11:48:03;;;;;;;1.95;0.40;;;;;;;20.08;35.64;99931.22;1729576;80;22166;-57
2021/06/03 11:50:35;;;;;;;23.45;7.90;;;;;;;20.08;35.98;99953.08;1735630;80;21097;-57